createdAt,value
2022-08-22T00:00:59.188Z,5.60
2022-08-22T00:02:44.825Z,11.10
2022-08-22T00:02:48.497Z,9.40
2022-08-22T00:02:49.934Z,5.75
2022-08-22T00:03:12.378Z,10.13
2022-08-22T00:04:14.497Z,5.95
2022-08-22T00:07:29.867Z,6.10
2022-08-22T00:10:40.616Z,5.57
2022-08-22T00:13:42.477Z,5.72
2022-08-22T00:17:27.390Z,5.35
2022-08-22T00:20:44.573Z,5.12
2022-08-22T00:24:24.005Z,5.80
2022-08-22T00:27:34.196Z,6.87
2022-08-22T00:30:48.778Z,6.00
2022-08-22T00:33:56.700Z,6.12
2022-08-22T00:37:19.533Z,5.53
2022-08-22T00:40:21.834Z,5.20
2022-08-22T00:43:42.172Z,5.75
2022-08-22T00:47:25.300Z,5.93
2022-08-22T00:50:58.613Z,5.47
2022-08-22T00:54:17.636Z,5.53
2022-08-22T00:57:47.457Z,5.10
2022-08-22T01:00:54.795Z,5.70
2022-08-22T01:04:14.931Z,5.18
2022-08-22T01:07:48.528Z,5.72
2022-08-22T01:11:10.879Z,5.90
2022-08-22T01:14:21.499Z,5.18
2022-08-22T01:17:58.865Z,5.32
2022-08-22T01:21:41.735Z,6.35
2022-08-22T01:25:25.985Z,5.57
2022-08-22T01:29:00.305Z,4.87
2022-08-22T01:32:24.571Z,4.95
2022-08-22T01:35:44.669Z,5.30
2022-08-22T01:39:05.131Z,5.18
2022-08-22T01:42:09.438Z,4.25
2022-08-22T01:45:32.689Z,3.90
2022-08-22T01:48:38.945Z,4.60
2022-08-22T01:52:06.518Z,3.93
2022-08-22T01:55:08.076Z,5.55
2022-08-22T01:58:24.664Z,6.00
2022-08-22T02:01:31.726Z,8.80
2022-08-22T02:04:39.576Z,9.40
2022-08-22T02:08:00.729Z,9.30
2022-08-22T02:11:12.920Z,9.82
2022-08-22T02:14:20.186Z,9.27
2022-08-22T02:17:54.606Z,9.57
2022-08-22T02:21:33.679Z,9.75
2022-08-22T02:25:20.430Z,9.77
2022-08-22T02:28:56.532Z,9.63
2022-08-22T02:33:00.548Z,11.02
2022-08-22T02:36:22.834Z,10.23
2022-08-22T02:39:48.395Z,13.15
2022-08-22T02:43:15.136Z,11.65
2022-08-22T02:46:32.269Z,10.15
2022-08-22T02:49:52.682Z,9.57
2022-08-22T02:53:17.380Z,9.73
2022-08-22T02:56:25.102Z,10.10
2022-08-22T02:59:34.321Z,11.38
2022-08-22T03:02:39.812Z,9.75
2022-08-22T03:05:47.066Z,9.75
2022-08-22T03:12:21.158Z,9.93
2022-08-22T03:15:25.575Z,10.70
2022-08-22T03:18:57.870Z,11.05
2022-08-22T03:22:31.362Z,9.77
2022-08-22T03:25:47.720Z,12.48
2022-08-22T03:28:59.970Z,11.20
2022-08-22T03:32:19.711Z,9.95
2022-08-22T03:35:32.443Z,10.27
2022-08-22T03:38:34.027Z,11.57
2022-08-22T03:42:03.134Z,10.93
2022-08-22T03:45:48.687Z,11.85
2022-08-22T03:49:12.171Z,11.68
2022-08-22T03:53:01.586Z,13.43
2022-08-22T03:56:15.026Z,12.75
2022-08-22T03:59:25.650Z,12.52
2022-08-22T04:02:47.447Z,10.35
2022-08-22T04:05:58.482Z,11.82
2022-08-22T04:09:18.214Z,13.05
2022-08-22T04:12:32.499Z,12.70
2022-08-22T04:16:02.836Z,12.90
2022-08-22T04:19:28.258Z,13.05
2022-08-22T04:23:27.001Z,14.25
2022-08-22T04:26:45.441Z,14.70
2022-08-22T04:30:09.419Z,14.85
2022-08-22T04:33:22.425Z,14.40
2022-08-22T04:36:35.016Z,14.80
2022-08-22T04:39:48.238Z,15.80
2022-08-22T04:42:59.536Z,15.85
2022-08-22T04:46:36.631Z,16.10
2022-08-22T04:50:04.553Z,16.73
2022-08-22T04:53:09.039Z,15.85
2022-08-22T04:56:54.746Z,16.12
2022-08-22T05:00:03.593Z,16.67
2022-08-22T05:03:14.498Z,16.87
2022-08-22T05:06:19.177Z,15.25
2022-08-22T05:09:27.377Z,16.75
2022-08-22T05:12:34.126Z,16.17
2022-08-22T05:18:47.895Z,18.62
2022-08-22T05:21:51.918Z,20.00
2022-08-22T05:24:59.824Z,21.42
2022-08-22T05:28:17.939Z,22.98
2022-08-22T05:31:26.441Z,23.62
2022-08-22T05:34:34.505Z,24.17
2022-08-22T05:37:44.918Z,23.48
2022-08-22T05:40:54.735Z,24.27
2022-08-22T05:43:56.661Z,23.08
2022-08-22T05:47:05.090Z,23.48
2022-08-22T05:50:08.787Z,23.60
2022-08-22T05:53:31.438Z,23.40
2022-08-22T05:56:42.175Z,22.90
2022-08-22T05:59:48.493Z,23.38
2022-08-22T06:03:15.113Z,20.33
2022-08-22T06:06:19.713Z,21.70
2022-08-22T06:09:42.707Z,21.20
2022-08-22T06:13:02.417Z,19.60
2022-08-22T06:16:35.008Z,18.95
2022-08-22T06:19:43.433Z,18.33
2022-08-22T06:22:54.782Z,20.15
2022-08-22T06:26:00.313Z,18.70
2022-08-22T06:29:03.483Z,18.05
2022-08-22T06:32:16.130Z,18.67
2022-08-22T06:35:50.716Z,17.42
2022-08-22T06:38:54.517Z,17.48
2022-08-22T06:42:16.701Z,17.27
2022-08-22T06:45:30.166Z,18.27
2022-08-22T06:48:34.418Z,16.25
2022-08-22T06:51:38.768Z,17.83
2022-08-22T06:54:46.961Z,16.33
2022-08-22T06:57:58.712Z,17.85
2022-08-22T07:01:11.692Z,15.55
2022-08-22T07:04:14.536Z,16.48
2022-08-22T07:07:19.611Z,16.98
2022-08-22T07:10:24.112Z,16.55
2022-08-22T07:13:28.347Z,17.17
2022-08-22T07:16:34.985Z,16.75
2022-08-22T07:19:40.261Z,17.40
2022-08-22T07:22:58.316Z,17.58
2022-08-22T07:26:20.444Z,18.37
2022-08-22T07:29:30.888Z,17.10
2022-08-22T07:33:26.105Z,18.95
2022-08-22T07:36:44.903Z,18.02
2022-08-22T07:40:09.370Z,19.75
2022-08-22T07:43:28.604Z,20.55
2022-08-22T07:46:38.097Z,20.10
2022-08-22T07:49:51.422Z,19.98
2022-08-22T07:52:57.300Z,18.85
2022-08-22T07:56:00.517Z,18.83
2022-08-22T07:59:17.053Z,18.17
2022-08-22T08:02:20.449Z,17.65
2022-08-22T08:05:30.547Z,17.27
2022-08-22T08:08:39.086Z,13.02
2022-08-22T08:11:43.611Z,12.65
2022-08-22T08:14:50.304Z,12.32
2022-08-22T08:18:01.973Z,11.00
2022-08-22T08:21:07.561Z,11.02
2022-08-22T08:24:16.096Z,12.95
2022-08-22T08:27:41.046Z,12.75
2022-08-22T08:31:28.235Z,12.27
2022-08-22T08:34:35.522Z,12.68
2022-08-22T08:37:49.479Z,13.60
2022-08-22T08:41:27.877Z,14.75
2022-08-22T08:47:54.856Z,14.73
2022-08-22T08:51:10.263Z,15.63
2022-08-22T08:54:47.212Z,16.83
2022-08-22T08:58:17.768Z,15.77
2022-08-22T09:01:44.570Z,16.58
2022-08-22T09:05:07.996Z,16.15
2022-08-22T09:08:30.749Z,17.45
2022-08-22T09:12:15.563Z,18.73
2022-08-22T09:15:23.117Z,18.87
2022-08-22T09:18:46.804Z,17.50
2022-08-22T09:21:55.602Z,16.33
2022-08-22T09:25:23.516Z,15.15
2022-08-22T09:28:53.428Z,16.02
2022-08-22T09:32:19.156Z,14.98
2022-08-22T09:35:31.103Z,14.70
2022-08-22T09:39:16.561Z,14.27
2022-08-22T09:42:31.505Z,13.07
2022-08-22T09:45:39.132Z,12.82
2022-08-22T09:48:57.967Z,13.77
2022-08-22T09:52:36.674Z,12.85
2022-08-22T09:55:59.242Z,10.48
2022-08-22T09:59:25.355Z,9.43
2022-08-22T10:02:30.726Z,10.75
2022-08-22T10:05:59.111Z,9.68
2022-08-22T10:09:26.406Z,10.85
2022-08-22T10:13:15.148Z,10.02
2022-08-22T10:16:41.758Z,10.15
2022-08-22T10:19:52.364Z,11.88
2022-08-22T10:23:21.064Z,10.40
2022-08-22T10:26:38.573Z,11.02
2022-08-22T10:30:18.559Z,10.95
2022-08-22T10:33:33.869Z,9.27
2022-08-22T10:36:40.505Z,8.43
2022-08-22T10:39:55.654Z,7.80
2022-08-22T10:43:37.793Z,7.65
2022-08-22T10:46:46.189Z,7.10
2022-08-22T10:49:54.830Z,7.20
2022-08-22T10:53:29.737Z,8.23
2022-08-22T10:57:24.199Z,6.68
2022-08-22T11:00:46.119Z,8.27
2022-08-22T11:04:10.014Z,7.87
2022-08-22T11:07:29.734Z,7.35
2022-08-22T11:10:49.052Z,6.62
2022-08-22T11:14:18.846Z,7.00
2022-08-22T11:17:54.405Z,7.25
2022-08-22T11:21:04.826Z,8.05
2022-08-22T11:24:46.527Z,7.72
2022-08-22T11:28:36.767Z,7.78
2022-08-22T11:31:51.455Z,8.40
2022-08-22T11:38:59.089Z,6.93
2022-08-22T11:42:06.041Z,8.02
2022-08-22T11:45:11.660Z,8.48
2022-08-22T11:48:39.742Z,9.15
2022-08-22T11:52:08.586Z,8.63
2022-08-22T11:55:34.397Z,7.87
2022-08-22T11:58:54.994Z,8.60
2022-08-22T12:02:04.242Z,7.93
2022-08-22T12:05:20.085Z,8.02
2022-08-22T12:08:34.142Z,7.60
2022-08-22T12:12:11.773Z,8.90
2022-08-22T12:15:33.298Z,8.80
2022-08-22T12:19:06.454Z,8.68
2022-08-22T12:22:34.983Z,7.35
2022-08-22T12:26:10.920Z,6.87
2022-08-22T12:29:19.066Z,6.55
2022-08-22T12:32:35.577Z,6.18
2022-08-22T12:35:51.265Z,5.07
2022-08-22T12:39:24.401Z,4.35
2022-08-22T12:42:34.849Z,4.93
2022-08-22T12:45:47.924Z,5.15
2022-08-22T12:49:14.539Z,4.57
2022-08-22T12:53:04.011Z,5.12
2022-08-22T12:56:14.548Z,4.90
2022-08-22T12:59:25.179Z,4.50
2022-08-22T13:02:35.102Z,6.55
2022-08-22T13:05:40.706Z,8.27
2022-08-22T13:08:46.122Z,7.80
2022-08-22T13:11:52.539Z,8.23
2022-08-22T13:15:00.204Z,8.73
2022-08-22T13:18:28.373Z,9.27
2022-08-22T13:21:36.330Z,8.45
2022-08-22T13:24:51.749Z,10.23
2022-08-22T13:28:01.300Z,11.43
2022-08-22T13:31:05.206Z,11.73
2022-08-22T13:34:32.085Z,11.02
2022-08-22T13:37:44.386Z,11.15
2022-08-22T13:40:49.574Z,11.73
2022-08-22T13:44:13.634Z,12.55
2022-08-22T13:47:19.549Z,13.45
2022-08-22T13:50:26.005Z,13.57
2022-08-22T13:53:41.571Z,13.40
2022-08-22T13:56:54.773Z,16.17
2022-08-22T14:00:12.391Z,15.65
2022-08-22T14:03:48.459Z,16.30
2022-08-22T14:07:02.082Z,17.55
2022-08-22T14:10:15.313Z,16.37
2022-08-22T14:13:32.434Z,17.37
2022-08-22T14:16:47.748Z,16.37
2022-08-22T14:20:01.737Z,16.42
2022-08-22T14:23:09.352Z,15.75
2022-08-22T14:29:59.399Z,15.73
2022-08-22T14:33:22.024Z,15.43
2022-08-22T14:36:47.324Z,16.12
2022-08-22T14:39:57.149Z,15.90
2022-08-22T14:43:08.022Z,16.75
2022-08-22T14:46:18.374Z,16.25
2022-08-22T14:49:20.870Z,16.15
2022-08-22T14:55:53.867Z,15.02
2022-08-22T14:59:04.664Z,15.93
2022-08-22T15:02:15.974Z,14.93
2022-08-22T15:05:21.456Z,15.80
2022-08-22T15:08:27.706Z,15.70
2022-08-22T15:11:32.237Z,14.90
2022-08-22T15:14:37.132Z,15.07
2022-08-22T15:17:45.990Z,13.65
2022-08-22T15:21:03.230Z,14.25
2022-08-22T15:24:13.702Z,13.62
2022-08-22T15:27:19.727Z,14.07
2022-08-22T15:30:44.532Z,14.70
2022-08-22T15:33:47.567Z,14.43
2022-08-22T15:37:28.103Z,13.23
2022-08-22T15:40:36.190Z,12.98
2022-08-22T15:43:49.273Z,13.15
2022-08-22T15:47:23.941Z,12.13
2022-08-22T15:50:58.485Z,13.00
2022-08-22T15:54:02.630Z,12.13
2022-08-22T15:57:30.235Z,12.02
2022-08-22T16:00:45.296Z,11.25
2022-08-22T16:04:07.429Z,13.38
2022-08-22T16:07:40.236Z,12.68
2022-08-22T16:10:46.332Z,11.85
2022-08-22T16:14:21.416Z,11.02
2022-08-22T16:17:29.458Z,12.23
2022-08-22T16:20:36.958Z,12.70
2022-08-22T16:23:54.166Z,11.00
2022-08-22T16:26:56.927Z,11.18
2022-08-22T16:30:05.924Z,11.50
2022-08-22T16:33:17.853Z,12.75
2022-08-22T16:36:51.062Z,12.15
2022-08-22T16:40:13.063Z,11.57
2022-08-22T16:43:19.616Z,11.88
2022-08-22T16:46:34.597Z,12.45
2022-08-22T16:49:50.637Z,12.80
2022-08-22T16:52:58.633Z,12.15
2022-08-22T16:56:09.209Z,12.88
2022-08-22T16:59:37.278Z,12.13
2022-08-22T17:02:53.241Z,13.43
2022-08-22T17:06:13.010Z,12.40
2022-08-22T17:09:52.200Z,12.63
2022-08-22T17:13:12.928Z,12.57
2022-08-22T17:16:26.863Z,11.95
2022-08-22T17:19:39.445Z,13.85
2022-08-22T17:23:07.127Z,13.48
2022-08-22T17:26:20.304Z,13.30
2022-08-22T17:29:49.199Z,13.82
2022-08-22T17:33:15.380Z,14.18
2022-08-22T17:36:32.304Z,13.13
2022-08-22T17:40:02.240Z,13.13
2022-08-22T17:43:03.834Z,13.43
2022-08-22T17:46:22.105Z,14.20
2022-08-22T17:49:49.191Z,14.20
2022-08-22T17:52:58.920Z,13.83
2022-08-22T17:56:12.266Z,14.07
2022-08-22T17:59:21.104Z,13.25
2022-08-22T18:02:40.718Z,12.73
2022-08-22T18:05:53.786Z,12.75
2022-08-22T18:09:18.041Z,13.32
2022-08-22T18:12:22.971Z,12.88
2022-08-22T18:15:35.032Z,12.70
2022-08-22T18:19:17.256Z,13.48
2022-08-22T18:22:31.762Z,13.73
2022-08-22T18:25:44.903Z,14.23
2022-08-22T18:28:55.235Z,13.90
2022-08-22T18:31:57.298Z,14.43
2022-08-22T18:35:18.149Z,14.30
2022-08-22T18:38:56.623Z,14.50
2022-08-22T18:42:34.024Z,15.63
2022-08-22T18:45:48.222Z,15.40
2022-08-22T18:49:14.172Z,15.23
2022-08-22T18:52:14.259Z,14.25
2022-08-22T18:55:49.780Z,15.38
2022-08-22T18:59:17.399Z,14.93
2022-08-22T19:02:37.913Z,14.90
2022-08-22T19:06:04.706Z,14.23
2022-08-22T19:09:20.302Z,15.10
2022-08-22T19:12:42.139Z,14.70
2022-08-22T19:16:03.111Z,13.93
2022-08-22T19:19:17.388Z,14.25
2022-08-22T19:22:19.776Z,14.30
2022-08-22T19:25:27.717Z,14.23
2022-08-22T19:28:37.032Z,13.57
2022-08-22T19:31:41.573Z,14.40
2022-08-22T19:34:47.754Z,13.70
2022-08-22T19:37:58.819Z,13.93
2022-08-22T19:41:02.142Z,14.55
2022-08-22T19:44:04.751Z,14.63
2022-08-22T19:47:18.828Z,14.95
2022-08-22T19:50:21.904Z,13.80
2022-08-22T19:53:42.739Z,14.23
2022-08-22T19:56:48.829Z,15.27
2022-08-22T20:00:08.339Z,14.18
2022-08-22T20:03:17.774Z,15.48
2022-08-22T20:06:46.477Z,14.52
2022-08-22T20:10:27.019Z,14.60
2022-08-22T20:13:35.961Z,14.75
2022-08-22T20:17:16.572Z,14.75
2022-08-22T20:20:24.053Z,14.63
2022-08-22T20:23:38.547Z,15.13
2022-08-22T20:27:10.129Z,14.30
2022-08-22T20:30:31.693Z,13.40
2022-08-22T20:33:39.189Z,14.50
2022-08-22T20:36:55.884Z,13.20
2022-08-22T20:40:56.058Z,13.93
2022-08-22T20:44:17.284Z,12.52
2022-08-22T20:47:32.316Z,13.70
2022-08-22T20:50:44.687Z,14.05
2022-08-22T20:53:53.081Z,14.23
2022-08-22T20:57:02.809Z,14.50
2022-08-22T21:00:11.908Z,13.27
2022-08-22T21:03:42.963Z,13.40
2022-08-22T21:06:45.817Z,13.80
2022-08-22T21:10:22.840Z,12.85
2022-08-22T21:13:29.222Z,14.60
2022-08-22T21:16:33.577Z,14.27
2022-08-22T21:19:35.853Z,14.38
2022-08-22T21:22:38.454Z,15.52
2022-08-22T21:25:56.675Z,14.52
2022-08-22T21:29:05.121Z,15.38
2022-08-22T21:32:33.161Z,14.70
2022-08-22T21:35:38.202Z,15.15
2022-08-22T21:38:48.567Z,13.73
2022-08-22T21:42:02.074Z,13.95
2022-08-22T21:45:10.604Z,14.57
2022-08-22T21:48:44.473Z,13.52
2022-08-22T21:51:50.876Z,14.10
2022-08-22T21:55:34.401Z,13.80
2022-08-22T21:58:41.005Z,13.70
2022-08-22T22:01:48.608Z,14.23
2022-08-22T22:05:00.504Z,13.95
2022-08-22T22:08:09.429Z,12.80
2022-08-22T22:11:27.585Z,13.68
2022-08-22T22:14:31.820Z,13.77
2022-08-22T22:17:39.826Z,13.32
2022-08-22T22:24:28.269Z,12.48
2022-08-22T22:27:37.226Z,13.05
2022-08-22T22:30:53.240Z,13.30
2022-08-22T22:33:55.351Z,13.60
2022-08-22T22:36:57.403Z,13.00
2022-08-22T22:40:07.296Z,12.43
2022-08-22T22:43:11.624Z,11.90
2022-08-22T22:46:14.280Z,12.30
2022-08-22T22:49:16.412Z,14.07
2022-08-22T22:52:18.307Z,13.55
2022-08-22T22:55:24.308Z,13.88
2022-08-22T22:58:27.915Z,14.13
2022-08-22T23:01:34.951Z,12.70
2022-08-22T23:04:38.984Z,14.18
2022-08-22T23:07:41.833Z,13.38
2022-08-22T23:10:43.578Z,13.62
2022-08-22T23:13:46.701Z,13.07
2022-08-22T23:16:48.353Z,12.60
2022-08-22T23:19:51.462Z,12.37
2022-08-22T23:22:53.430Z,13.25
2022-08-22T23:25:55.344Z,12.85
2022-08-22T23:29:00.577Z,13.57
2022-08-22T23:32:04.743Z,14.15
2022-08-22T23:35:07.089Z,13.85
2022-08-22T23:38:10.434Z,14.07
2022-08-22T23:41:17.769Z,14.27
2022-08-22T23:44:23.812Z,15.10
2022-08-22T23:47:26.730Z,15.52
2022-08-22T23:50:28.668Z,17.35
2022-08-22T23:53:31.159Z,16.67
2022-08-22T23:56:40.267Z,18.58
2022-08-22T23:59:47.856Z,19.60
